createdAt,value
2019-01-13T09:02:14.956Z,51.40
2019-01-13T09:03:15.900Z,52.00
2019-01-13T09:04:16.864Z,51.90
2019-01-13T09:05:17.825Z,51.90
2019-01-13T09:06:20.100Z,51.70
2019-01-13T09:07:21.041Z,51.90
2019-01-13T09:08:22.466Z,51.70
2019-01-13T09:09:23.414Z,51.50
2019-01-13T09:10:24.395Z,51.70
2019-01-13T09:11:25.613Z,51.40
2019-01-13T09:12:29.374Z,51.40
2019-01-13T09:13:30.407Z,51.40
2019-01-13T09:14:34.932Z,51.30
2019-01-13T09:15:36.191Z,51.10
2019-01-13T09:16:37.192Z,51.20
2019-01-13T09:17:38.134Z,51.00
2019-01-13T09:18:39.104Z,50.90
2019-01-13T09:19:40.052Z,51.50
2019-01-13T09:20:41.427Z,50.70
2019-01-13T09:21:49.612Z,51.40
2019-01-13T09:22:53.359Z,50.60
2019-01-13T09:23:54.402Z,50.60
2019-01-13T09:24:55.349Z,50.50
2019-01-13T09:25:56.548Z,50.50
2019-01-13T09:27:00.830Z,50.60
2019-01-13T09:28:03.500Z,50.40
2019-01-13T09:29:04.731Z,50.30
2019-01-13T09:30:07.649Z,50.30
2019-01-13T09:31:11.508Z,51.80
2019-01-13T09:32:13.608Z,50.40
2019-01-13T09:33:14.563Z,50.10
2019-01-13T09:34:15.528Z,50.20
2019-01-13T09:35:16.473Z,50.10
2019-01-13T09:36:17.451Z,50.10
2019-01-13T09:37:21.160Z,51.80
2019-01-13T09:38:22.612Z,50.10
2019-01-13T09:39:23.689Z,49.90
2019-01-13T09:40:27.634Z,49.80
2019-01-13T09:41:28.592Z,49.90
2019-01-13T09:42:29.597Z,49.70
2019-01-13T09:43:32.434Z,49.70
2019-01-13T09:44:33.769Z,49.60
2019-01-13T09:45:34.918Z,49.60
2019-01-13T09:46:36.005Z,49.50
2019-01-13T09:47:37.463Z,49.50
2019-01-13T09:48:40.331Z,49.50
2019-01-13T09:49:41.291Z,49.30
2019-01-13T09:50:44.538Z,49.50
2019-01-13T09:51:45.588Z,49.60
2019-01-13T09:52:47.965Z,49.70
2019-01-13T09:53:48.925Z,49.50
2019-01-13T09:54:59.517Z,49.80
2019-01-13T09:56:05.741Z,49.50
2019-01-13T09:57:10.480Z,49.40
2019-01-13T09:58:11.594Z,49.30
2019-01-13T09:59:12.642Z,49.30
2019-01-13T10:00:24.062Z,49.20
2019-01-13T10:01:25.359Z,49.50
2019-01-13T10:02:31.622Z,49.10
2019-01-13T10:03:37.858Z,49.30
2019-01-13T10:04:42.189Z,49.20
2019-01-13T10:05:43.168Z,49.10
2019-01-13T10:06:44.136Z,49.10
2019-01-13T10:07:45.188Z,49.00
2019-01-13T10:08:46.595Z,49.00
2019-01-13T10:09:47.658Z,49.10
2019-01-13T10:10:51.691Z,49.00
2019-01-13T10:11:53.703Z,49.00
2019-01-13T10:12:54.650Z,49.00
2019-01-13T10:13:55.765Z,49.00
2019-01-13T10:14:58.840Z,48.80
2019-01-13T10:15:59.823Z,48.10
2019-01-13T10:17:00.849Z,47.40
2019-01-13T10:18:01.837Z,46.60
2019-01-13T10:19:03.305Z,46.90
2019-01-13T10:20:08.521Z,47.10
2019-01-13T10:21:16.437Z,46.60
2019-01-13T10:22:20.160Z,46.60
2019-01-13T10:23:29.193Z,46.70
2019-01-13T10:24:33.001Z,46.60
2019-01-13T10:25:43.909Z,46.30
2019-01-13T10:26:50.155Z,46.20
2019-01-13T10:27:51.146Z,46.10
2019-01-13T10:28:52.201Z,46.00
2019-01-13T10:29:53.741Z,46.00
2019-01-13T10:31:03.189Z,46.00
2019-01-13T10:32:06.786Z,46.30
2019-01-13T10:33:17.222Z,46.40
2019-01-13T10:34:21.220Z,46.50
2019-01-13T10:35:22.418Z,46.60
2019-01-13T10:36:23.354Z,47.00
2019-01-13T10:37:24.292Z,46.70
2019-01-13T10:38:25.228Z,47.00
2019-01-13T10:39:26.182Z,47.00
2019-01-13T10:40:27.431Z,46.90
2019-01-13T10:41:28.406Z,47.20
2019-01-13T10:42:29.458Z,47.10
2019-01-13T10:43:30.400Z,47.10
2019-01-13T10:44:31.739Z,47.10
2019-01-13T10:45:32.821Z,46.90
2019-01-13T10:46:33.776Z,47.00
2019-01-13T10:47:37.811Z,47.10
2019-01-13T10:48:38.776Z,47.20
2019-01-13T10:49:39.745Z,47.40
2019-01-13T10:50:41.082Z,47.50
2019-01-13T10:51:42.063Z,47.50
2019-01-13T10:52:43.008Z,47.70
2019-01-13T10:53:46.929Z,47.70
2019-01-13T10:54:47.885Z,47.90
2019-01-13T10:55:49.089Z,47.90
2019-01-13T10:56:59.256Z,47.90
2019-01-13T10:58:00.205Z,48.00
2019-01-13T10:59:01.549Z,48.00
2019-01-13T11:00:04.456Z,48.10
2019-01-13T11:01:05.472Z,48.20
2019-01-13T11:02:06.432Z,48.20
2019-01-13T11:03:09.465Z,48.20
2019-01-13T11:04:11.205Z,48.30
2019-01-13T11:05:12.156Z,48.30
2019-01-13T11:06:13.252Z,48.40
2019-01-13T11:07:14.212Z,48.40
2019-01-13T11:08:15.157Z,48.40
2019-01-13T11:09:16.394Z,48.50
2019-01-13T11:10:18.044Z,48.50
2019-01-13T11:11:19.056Z,48.70
2019-01-13T11:12:20.043Z,48.70
2019-01-13T11:13:23.946Z,48.70
2019-01-13T11:14:24.913Z,48.70
2019-01-13T11:15:26.149Z,48.80
2019-01-13T11:16:27.156Z,48.70
2019-01-13T11:17:29.349Z,48.60
2019-01-13T11:18:30.295Z,48.60
2019-01-13T11:19:33.051Z,48.70
2019-01-13T11:20:35.217Z,48.70
2019-01-13T11:21:45.860Z,48.60
2019-01-13T11:22:46.815Z,48.50
2019-01-13T11:23:47.797Z,47.90
2019-01-13T11:24:48.850Z,47.60
2019-01-13T11:25:50.073Z,47.40
2019-01-13T11:26:51.231Z,47.20
2019-01-13T11:27:52.173Z,47.00
2019-01-13T11:28:53.164Z,46.90
2019-01-13T11:29:54.297Z,46.90
2019-01-13T11:30:55.368Z,46.90
2019-01-13T11:32:05.637Z,46.80
2019-01-13T11:33:09.727Z,46.80
2019-01-13T11:34:09.472Z,46.90
2019-01-13T11:35:11.856Z,46.90
2019-01-13T11:36:12.810Z,47.00
2019-01-13T11:37:13.848Z,47.10
2019-01-13T11:38:14.798Z,47.20
2019-01-13T11:39:16.136Z,47.20
2019-01-13T11:40:18.024Z,47.20
2019-01-13T11:41:21.250Z,47.20
2019-01-13T11:42:25.212Z,47.30
2019-01-13T11:43:26.183Z,47.40
2019-01-13T11:44:27.132Z,47.50
2019-01-13T11:45:28.353Z,47.60
2019-01-13T11:46:32.320Z,47.60
2019-01-13T11:47:33.364Z,47.60
2019-01-13T11:48:34.398Z,47.70
2019-01-13T11:49:35.365Z,47.60
2019-01-13T11:50:36.298Z,47.60
2019-01-13T11:51:39.438Z,47.80
2019-01-13T11:52:40.510Z,47.70
2019-01-13T11:53:41.461Z,47.80
2019-01-13T11:54:44.307Z,47.70
2019-01-13T11:55:45.268Z,47.70
2019-01-13T11:56:46.215Z,47.70
2019-01-13T11:57:47.430Z,47.90
2019-01-13T11:58:50.279Z,47.80
2019-01-13T11:59:51.245Z,47.90
2019-01-13T12:00:52.225Z,48.00
2019-01-13T12:01:53.197Z,48.10
2019-01-13T12:02:54.317Z,48.00
2019-01-13T12:03:56.433Z,48.10
2019-01-13T12:04:57.384Z,48.80
2019-01-13T12:05:58.341Z,48.20
2019-01-13T12:07:01.205Z,48.20
2019-01-13T12:08:05.453Z,48.20
2019-01-13T12:09:08.350Z,48.20
2019-01-13T12:10:13.919Z,48.20
2019-01-13T12:11:14.064Z,48.20
2019-01-13T12:12:17.459Z,48.20
2019-01-13T12:13:18.502Z,48.30
2019-01-13T12:14:19.457Z,48.30
2019-01-13T12:15:20.932Z,48.30
2019-01-13T12:16:24.833Z,48.90
2019-01-13T12:17:35.681Z,48.30
2019-01-13T12:18:40.435Z,48.40
2019-01-13T12:19:39.965Z,48.40
2019-01-13T12:20:40.940Z,48.40
2019-01-13T12:21:41.903Z,48.40
2019-01-13T12:22:42.854Z,48.60
2019-01-13T12:23:43.883Z,48.50
2019-01-13T12:24:45.940Z,48.40
2019-01-13T12:25:52.526Z,48.40
2019-01-13T12:26:49.732Z,48.40
2019-01-13T12:27:50.893Z,48.40
2019-01-13T12:28:54.385Z,48.40
2019-01-13T12:29:55.655Z,48.40
2019-01-13T12:30:56.922Z,48.70
2019-01-13T12:31:57.911Z,48.70
2019-01-13T12:32:59.764Z,48.90
2019-01-13T12:34:00.888Z,48.90
2019-01-13T12:58:13.969Z,35.30
2019-01-13T12:59:20.735Z,38.00
2019-01-13T13:00:22.334Z,36.80
2019-01-13T13:01:25.731Z,80.50
2019-01-13T13:05:37.722Z,32.90
2019-01-13T13:06:39.180Z,34.80
2019-01-13T13:07:42.406Z,40.70
2019-01-13T13:14:30.187Z,58.10
2019-01-13T13:15:31.389Z,63.90
2019-01-13T13:16:33.848Z,67.80
2019-01-13T13:17:35.154Z,71.30
2019-01-13T13:18:36.638Z,73.10
2019-01-13T13:19:38.421Z,74.80
2019-01-13T13:20:40.239Z,76.10
2019-01-13T13:21:41.763Z,76.60
2019-01-13T13:22:43.244Z,76.40
2019-01-13T13:23:44.581Z,77.80
2019-01-13T13:24:49.099Z,76.30
2019-01-13T13:25:50.837Z,75.70
2019-01-13T13:26:52.298Z,77.10
2019-01-13T13:27:53.604Z,76.60
2019-01-13T13:28:56.464Z,77.30
2019-01-13T13:29:58.122Z,79.00
2019-01-13T13:31:02.305Z,79.60
2019-01-13T13:32:03.920Z,78.70
2019-01-13T13:33:12.006Z,79.00
2019-01-13T13:34:13.429Z,77.00
2019-01-13T13:35:14.971Z,77.40
2019-01-13T13:36:16.437Z,78.40
2019-01-13T13:37:17.690Z,79.00
2019-01-13T13:38:20.229Z,77.30
2019-01-13T13:39:21.545Z,78.00
2019-01-13T13:40:25.529Z,79.20
2019-01-13T13:41:29.607Z,77.20
2019-01-13T13:42:36.865Z,78.00
2019-01-13T13:43:38.111Z,77.50
2019-01-13T13:44:39.635Z,76.90
2019-01-13T13:45:40.987Z,77.70
2019-01-13T13:46:42.410Z,78.30
2019-01-13T13:47:43.618Z,78.90
2019-01-13T13:48:45.016Z,79.10
2019-01-13T13:49:46.455Z,78.20
2019-01-13T13:50:48.205Z,77.70
2019-01-13T13:51:49.695Z,77.00
2019-01-13T13:52:51.051Z,77.10
2019-01-13T13:53:52.513Z,77.90
2019-01-13T13:54:53.918Z,78.00
2019-01-13T13:55:55.386Z,78.90
2019-01-13T13:56:56.983Z,77.90
2019-01-13T13:57:58.273Z,79.90
2019-01-13T13:58:59.560Z,78.10
2019-01-13T14:00:00.907Z,77.70
2019-01-13T14:01:02.437Z,78.40
2019-01-13T14:02:04.517Z,76.30
2019-01-13T14:03:07.954Z,77.20
2019-01-13T14:04:13.079Z,77.90
2019-01-13T14:05:14.547Z,78.10
2019-01-13T14:06:19.722Z,77.20
2019-01-13T14:07:24.197Z,75.80
2019-01-13T14:08:34.464Z,78.00
2019-01-13T14:10:24.136Z,78.50
2019-01-13T14:11:25.729Z,78.80
2019-01-13T14:12:27.209Z,79.80
2019-01-13T14:13:28.700Z,80.60
2019-01-13T14:14:30.261Z,79.10
2019-01-13T14:15:31.786Z,78.20
2019-01-13T14:16:34.504Z,79.70
2019-01-13T14:17:36.423Z,80.60
2019-01-13T14:18:40.803Z,79.60
2019-01-13T14:19:44.582Z,79.90
2019-01-13T14:20:45.950Z,79.60
2019-01-13T14:21:47.464Z,80.00
2019-01-13T14:22:52.198Z,79.60
2019-01-13T14:23:53.828Z,78.90
2019-01-13T14:24:55.917Z,79.30
2019-01-13T14:25:57.776Z,79.30
2019-01-13T14:26:59.991Z,79.30
2019-01-13T14:28:01.973Z,77.70
2019-01-13T14:29:05.611Z,77.70
2019-01-13T14:30:12.007Z,79.70
2019-01-13T14:31:13.403Z,78.60
2019-01-13T14:32:15.543Z,78.70
2019-01-13T14:33:17.181Z,77.90
2019-01-13T14:34:18.899Z,78.70
2019-01-13T14:35:21.375Z,79.10
2019-01-13T14:36:22.985Z,78.70
2019-01-13T14:37:24.771Z,79.00
2019-01-13T14:38:26.929Z,80.10
2019-01-13T14:39:28.723Z,81.00
2019-01-13T14:40:30.209Z,81.50
2019-01-13T14:41:32.259Z,80.00
2019-01-13T14:42:37.495Z,79.90
2019-01-13T14:43:39.366Z,79.50
2019-01-13T14:44:43.679Z,78.50
2019-01-13T14:45:47.098Z,79.90
2019-01-13T14:49:19.976Z,68.90
2019-01-13T14:50:22.355Z,65.70
2019-01-13T14:51:23.795Z,66.00
2019-01-13T14:52:25.203Z,68.20
2019-01-13T14:53:26.587Z,67.70
2019-01-13T14:54:28.418Z,68.80
2019-01-13T14:55:29.874Z,66.00
2019-01-13T14:56:31.257Z,67.80
2019-01-13T14:57:32.653Z,67.20
2019-01-13T14:58:34.053Z,66.60
2019-01-13T14:59:35.552Z,67.40
2019-01-13T15:00:37.226Z,66.50
2019-01-13T15:01:38.784Z,66.20
2019-01-13T15:02:43.079Z,67.20
2019-01-13T15:03:47.254Z,67.30
2019-01-13T15:04:52.154Z,66.50
2019-01-13T15:05:56.523Z,68.40
2019-01-13T15:06:59.848Z,66.00
2019-01-13T15:08:04.054Z,65.80
2019-01-13T15:09:07.537Z,65.80
2019-01-13T15:10:10.361Z,66.00
2019-01-13T15:11:11.741Z,65.30
2019-01-13T15:12:13.178Z,65.80
2019-01-13T15:13:14.568Z,66.00
2019-01-13T15:14:19.099Z,65.00
2019-01-13T15:15:20.582Z,65.30
2019-01-13T15:16:21.966Z,66.80
2019-01-13T15:17:23.441Z,66.10
2019-01-13T15:18:27.154Z,67.20
2019-01-13T15:19:28.826Z,66.90
2019-01-13T15:20:30.411Z,66.40
2019-01-13T15:21:31.727Z,69.70
2019-01-13T15:22:33.124Z,67.90
2019-01-13T15:23:34.513Z,66.30
2019-01-13T15:24:36.292Z,69.30
2019-01-13T15:25:37.778Z,68.00
2019-01-13T15:26:39.152Z,67.10
2019-01-13T15:27:40.542Z,67.00
2019-01-13T15:28:45.084Z,69.60
2019-01-13T15:29:46.473Z,70.70
2019-01-13T15:30:48.203Z,68.90
2019-01-13T15:31:49.906Z,69.90
2019-01-13T15:32:51.612Z,68.10
2019-01-13T15:33:52.995Z,68.10
2019-01-13T15:34:54.394Z,66.80
2019-01-13T15:35:55.901Z,68.80
2019-01-13T15:37:00.091Z,67.30
2019-01-13T15:38:01.780Z,67.70
2019-01-13T15:39:04.866Z,68.10
2019-01-13T15:40:08.146Z,69.60
2019-01-13T15:41:10.383Z,69.00
2019-01-13T15:42:12.681Z,68.90
2019-01-13T15:43:14.655Z,67.60
2019-01-13T15:44:16.340Z,71.60
2019-01-13T15:45:17.977Z,69.90
2019-01-13T15:46:21.041Z,69.50
2019-01-13T15:47:22.710Z,69.50
2019-01-13T15:48:24.102Z,70.00
2019-01-13T15:49:25.498Z,69.00
2019-01-13T15:50:27.536Z,70.60
2019-01-13T15:51:29.044Z,67.80
2019-01-13T15:52:30.433Z,70.00
2019-01-13T15:53:32.739Z,68.20
2019-01-13T15:54:34.140Z,66.80
2019-01-13T15:55:35.899Z,66.70
2019-01-13T15:56:37.319Z,68.30
2019-01-13T15:57:38.699Z,67.50
2019-01-13T15:58:40.081Z,66.60
2019-01-13T15:59:41.541Z,66.70
2019-01-13T16:00:42.912Z,66.70
2019-01-13T16:01:44.662Z,66.40
2019-01-13T16:02:46.091Z,67.20
2019-01-13T16:03:49.323Z,66.70
2019-01-13T16:04:50.655Z,67.60
2019-01-13T16:05:54.009Z,69.40
2019-01-13T16:06:55.357Z,69.80
2019-01-13T16:07:57.509Z,68.70
2019-01-13T16:08:58.883Z,68.20
2019-01-13T16:10:00.259Z,68.30
2019-01-13T16:11:01.716Z,67.20
2019-01-13T16:12:03.269Z,66.90
2019-01-13T16:13:04.901Z,66.60
2019-01-13T16:14:06.531Z,68.00
2019-01-13T16:15:08.824Z,69.10
2019-01-13T16:16:10.211Z,67.40
2019-01-13T16:17:11.629Z,68.50
2019-01-13T16:18:13.003Z,68.10
2019-01-13T16:19:17.152Z,67.60
2019-01-13T16:20:20.355Z,67.50
2019-01-13T16:21:21.838Z,66.60
2019-01-13T16:22:23.216Z,65.70
2019-01-13T16:23:24.623Z,66.50
2019-01-13T16:24:29.319Z,65.30
2019-01-13T16:25:30.763Z,68.10
2019-01-13T16:26:33.559Z,66.10
2019-01-13T16:27:42.065Z,66.40
2019-01-13T16:28:43.520Z,66.60
2019-01-13T16:29:44.898Z,66.80
2019-01-13T16:30:47.468Z,68.40
2019-01-13T16:31:48.905Z,67.10
2019-01-13T16:32:50.690Z,69.60
2019-01-13T16:33:52.101Z,67.90
2019-01-13T16:34:53.494Z,68.90
2019-01-13T16:35:57.653Z,68.30
2019-01-13T16:36:59.031Z,66.70
2019-01-13T16:38:00.477Z,68.00
2019-01-13T16:39:04.659Z,68.70
2019-01-13T16:40:10.154Z,67.50
2019-01-13T16:41:11.548Z,67.50
2019-01-13T16:42:12.946Z,67.60
2019-01-13T16:43:15.059Z,66.30
2019-01-13T16:44:16.432Z,66.20
2019-01-13T16:45:18.308Z,66.70
2019-01-13T16:46:19.706Z,67.20
2019-01-13T16:47:24.278Z,66.80
2019-01-13T16:48:25.790Z,67.90
2019-01-13T16:49:27.195Z,67.60
2019-01-13T16:50:28.590Z,66.50
2019-01-13T16:51:33.496Z,67.10
2019-01-13T16:52:36.592Z,69.20
2019-01-13T16:53:37.982Z,68.20
2019-01-13T16:54:39.521Z,67.80
2019-01-13T16:55:40.905Z,67.90
2019-01-13T16:56:45.022Z,67.90
2019-01-13T16:57:46.398Z,68.10
2019-01-13T16:58:47.948Z,69.60
2019-01-13T16:59:49.310Z,68.60
2019-01-13T17:00:50.732Z,68.70
2019-01-13T17:01:52.117Z,70.20
2019-01-13T17:02:53.484Z,68.40
2019-01-13T17:03:58.091Z,67.70
2019-01-13T17:04:59.345Z,67.90
2019-01-13T17:06:00.748Z,67.30
2019-01-13T17:07:19.396Z,66.60
2019-01-13T17:08:20.786Z,67.50
2019-01-13T17:09:22.394Z,67.70
2019-01-13T17:10:26.019Z,68.80
2019-01-13T17:11:27.730Z,68.80
2019-01-13T17:12:31.205Z,69.60
2019-01-13T17:13:32.625Z,68.40
2019-01-13T17:14:34.326Z,69.00
2019-01-13T17:15:35.735Z,69.90
2019-01-13T17:16:37.464Z,68.60
2019-01-13T17:17:38.864Z,72.90
2019-01-13T17:18:43.935Z,69.60
2019-01-13T17:19:46.123Z,71.90
2019-01-13T17:20:48.208Z,70.10
2019-01-13T17:21:49.594Z,69.50
2019-01-13T17:22:53.989Z,68.80
2019-01-13T17:23:55.382Z,68.30
2019-01-13T17:24:56.835Z,69.50
2019-01-13T17:25:58.497Z,68.40
2019-01-13T17:27:03.098Z,69.20
2019-01-13T17:28:06.290Z,69.40
2019-01-13T17:29:09.028Z,68.60
2019-01-13T17:30:12.200Z,69.30
2019-01-13T17:31:13.569Z,69.00
2019-01-13T17:32:19.558Z,68.20
2019-01-13T17:33:23.792Z,69.30
2019-01-13T17:34:25.179Z,70.20
2019-01-13T17:35:27.110Z,70.40
2019-01-13T17:36:28.498Z,69.20
2019-01-13T17:37:31.035Z,71.20
2019-01-13T17:38:32.366Z,69.30
2019-01-13T17:39:33.742Z,70.60
2019-01-13T17:40:35.352Z,70.20
2019-01-13T17:41:40.206Z,69.00
2019-01-13T17:42:41.579Z,68.70
2019-01-13T17:43:45.751Z,67.60
2019-01-13T17:44:47.408Z,67.60
2019-01-13T17:45:48.822Z,66.20
2019-01-13T17:46:50.214Z,67.70
2019-01-13T17:47:51.654Z,66.60
2019-01-13T17:48:53.024Z,67.80
2019-01-13T17:49:54.417Z,67.20
2019-01-13T17:50:55.885Z,67.70
2019-01-13T17:51:57.255Z,67.60
2019-01-13T17:52:58.684Z,67.70
2019-01-13T17:54:00.452Z,68.20
2019-01-13T17:55:01.833Z,67.90
2019-01-13T17:56:03.247Z,67.70
2019-01-13T17:57:04.620Z,68.20
2019-01-13T17:58:06.370Z,68.70
2019-01-13T17:59:07.745Z,68.50
2019-01-13T18:00:27.915Z,69.00
2019-01-13T18:01:29.451Z,68.80
2019-01-13T18:02:30.811Z,68.50
2019-01-13T18:03:36.400Z,68.90
2019-01-13T18:04:43.199Z,68.70
2019-01-13T18:05:42.859Z,68.50
2019-01-13T18:06:44.604Z,68.10
2019-01-13T18:07:46.000Z,67.70
2019-01-13T18:08:47.375Z,68.10
2019-01-13T18:09:50.543Z,67.60
2019-01-13T18:10:54.733Z,67.30
2019-01-13T18:11:56.240Z,66.90
2019-01-13T18:12:57.631Z,66.40
2019-01-13T18:13:59.011Z,66.60
2019-01-13T18:15:00.729Z,66.50
2019-01-13T18:16:02.107Z,67.30
2019-01-13T18:17:06.485Z,67.00
2019-01-13T18:18:07.927Z,67.50
2019-01-13T18:19:11.534Z,67.60
2019-01-13T18:20:14.250Z,69.70
2019-01-13T18:21:15.913Z,70.20
2019-01-13T18:22:17.651Z,70.00
2019-01-13T18:23:19.077Z,68.50
2019-01-13T18:24:20.552Z,69.20
2019-01-13T18:25:22.369Z,69.80
2019-01-13T18:26:24.127Z,68.50
2019-01-13T18:27:25.786Z,69.50
2019-01-13T18:28:27.221Z,69.40
2019-01-13T18:29:28.601Z,69.10
2019-01-13T18:30:29.986Z,69.50
2019-01-13T18:31:31.626Z,68.50
2019-01-13T18:32:33.272Z,68.40
2019-01-13T18:33:34.673Z,67.70
2019-01-13T18:34:38.832Z,68.20
2019-01-13T18:35:40.608Z,69.10
2019-01-13T18:36:43.686Z,68.30
2019-01-13T18:37:45.158Z,67.70
2019-01-13T18:38:48.350Z,68.90
2019-01-13T18:39:49.730Z,68.80
2019-01-13T18:40:53.156Z,68.40
2019-01-13T18:41:54.537Z,68.80
2019-01-13T18:42:58.793Z,68.40
2019-01-13T18:44:00.496Z,68.00
2019-01-13T18:45:02.247Z,68.40
2019-01-13T18:46:03.617Z,68.30
2019-01-13T18:47:04.994Z,68.40
2019-01-13T18:48:06.416Z,68.20
2019-01-13T18:49:07.806Z,68.70
2019-01-13T18:50:10.411Z,67.90
2019-01-13T18:51:11.839Z,67.90
2019-01-13T18:52:13.240Z,68.20
2019-01-13T18:53:15.213Z,69.50
2019-01-13T18:54:16.580Z,69.20
2019-01-13T18:55:17.959Z,70.00
2019-01-13T18:56:21.634Z,70.10
2019-01-13T18:57:23.007Z,70.90
2019-01-13T18:58:24.451Z,72.30
2019-01-13T18:59:25.849Z,73.00
2019-01-13T19:00:27.239Z,75.30
2019-01-13T19:01:28.630Z,73.80
2019-01-13T19:02:30.470Z,73.60
2019-01-13T19:03:33.359Z,74.50
2019-01-13T19:04:34.749Z,76.60
2019-01-13T19:05:38.416Z,78.20
2019-01-13T19:06:39.786Z,78.00
2019-01-13T19:07:41.175Z,79.30
2019-01-13T19:08:42.570Z,78.60
2019-01-13T19:09:43.956Z,79.80
2019-01-13T19:10:47.145Z,82.10
2019-01-13T19:11:51.304Z,82.20
2019-01-13T19:12:57.487Z,82.80
2019-01-13T19:14:03.815Z,82.50
2019-01-13T19:15:07.415Z,81.50
2019-01-13T19:16:10.603Z,78.10
2019-01-13T19:17:14.782Z,78.60
2019-01-13T19:18:16.162Z,78.50
2019-01-13T19:19:17.608Z,80.90
2019-01-13T19:20:18.994Z,80.10
2019-01-13T19:21:23.522Z,80.00
2019-01-13T19:22:26.563Z,79.90
2019-01-13T19:23:28.698Z,80.20
2019-01-13T19:24:30.143Z,81.80
2019-01-13T19:25:31.541Z,82.30
2019-01-13T19:26:33.280Z,82.10
2019-01-13T19:27:35.084Z,82.20
2019-01-13T19:28:36.481Z,83.40
2019-01-13T19:29:39.771Z,82.80
2019-01-13T19:30:41.151Z,84.10
2019-01-13T19:31:42.775Z,83.00
2019-01-13T19:32:44.143Z,83.50
2019-01-13T19:33:45.911Z,82.40
2019-01-13T19:34:47.467Z,78.90
2019-01-13T19:35:51.779Z,78.50
2019-01-13T19:36:55.693Z,82.00
2019-01-13T19:37:57.139Z,81.10
2019-01-13T19:38:58.541Z,83.50
2019-01-13T19:40:00.276Z,82.30
2019-01-13T19:41:01.683Z,83.50
2019-01-13T19:42:06.358Z,84.00
2019-01-13T19:43:10.507Z,83.20
2019-01-13T19:44:12.059Z,82.50
2019-01-13T19:45:17.453Z,81.90
2019-01-13T19:46:19.106Z,82.30
2019-01-13T19:47:20.499Z,82.40
2019-01-13T19:48:21.884Z,81.00
2019-01-13T19:49:23.286Z,80.30
2019-01-13T19:50:27.867Z,77.70
2019-01-13T19:51:29.503Z,78.20
2019-01-13T19:52:37.202Z,79.80
2019-01-13T19:53:41.337Z,78.40
2019-01-13T19:54:42.733Z,79.20
2019-01-13T19:55:44.331Z,79.20
2019-01-13T19:56:45.733Z,78.80
2019-01-13T19:57:47.420Z,79.10
2019-01-13T19:58:49.101Z,77.40
2019-01-13T19:59:50.475Z,76.50
2019-01-13T20:00:51.920Z,76.20
2019-01-13T20:01:53.307Z,75.90
2019-01-13T20:02:54.727Z,75.70
2019-01-13T20:04:00.840Z,75.00
2019-01-13T20:05:02.809Z,74.50
2019-01-13T20:06:04.396Z,72.80
2019-01-13T20:07:06.010Z,73.10
2019-01-13T20:08:07.535Z,72.20
2019-01-13T20:09:10.215Z,72.20
2019-01-13T20:10:12.308Z,71.60
2019-01-13T20:11:14.017Z,71.50
2019-01-13T20:12:15.414Z,71.00
2019-01-13T20:13:16.881Z,70.50
2019-01-13T20:14:18.300Z,69.90
2019-01-13T20:15:20.261Z,70.30
2019-01-13T20:16:21.765Z,70.60
2019-01-13T20:17:23.443Z,71.00
2019-01-13T20:18:27.975Z,71.20
2019-01-13T20:19:29.450Z,70.80
2019-01-13T20:20:30.836Z,71.10
2019-01-13T20:21:32.733Z,72.20
2019-01-13T20:22:34.227Z,71.50
2019-01-13T20:23:35.600Z,71.60
2019-01-13T20:24:36.971Z,71.20
2019-01-13T20:25:38.389Z,71.40
2019-01-13T20:26:39.822Z,73.40
2019-01-13T20:27:41.450Z,73.80
2019-01-13T20:28:42.832Z,73.30
2019-01-13T20:29:44.499Z,73.30
2019-01-13T20:30:45.903Z,72.50
2019-01-13T20:31:47.311Z,75.30
2019-01-13T20:32:51.722Z,75.50
2019-01-13T20:33:53.936Z,74.70
2019-01-13T20:34:55.318Z,74.70
2019-01-13T20:35:57.000Z,75.90
2019-01-13T20:36:58.504Z,76.70
2019-01-13T20:38:05.666Z,77.30
2019-01-13T20:39:09.867Z,76.00
2019-01-13T20:40:12.234Z,76.60
2019-01-13T20:41:13.624Z,75.60
2019-01-13T20:42:18.087Z,76.10
2019-01-13T20:43:19.493Z,76.30
2019-01-13T20:44:21.524Z,75.40
2019-01-13T20:45:30.519Z,74.30
2019-01-13T20:46:33.832Z,76.30
2019-01-13T20:47:35.238Z,76.20
2019-01-13T20:48:36.728Z,73.40
2019-01-13T20:49:38.468Z,72.80
2019-01-13T20:50:39.851Z,71.60
2019-01-13T20:51:41.352Z,75.30
2019-01-13T20:52:42.873Z,75.20
2019-01-13T20:53:44.250Z,73.00
2019-01-13T20:54:45.919Z,75.20
2019-01-13T20:55:47.299Z,75.60
2019-01-13T20:56:48.699Z,74.30
2019-01-13T20:57:50.171Z,73.60
2019-01-13T20:58:51.603Z,75.80
2019-01-13T20:59:52.989Z,76.10
2019-01-13T21:00:54.667Z,77.30
2019-01-13T21:01:56.051Z,76.90
2019-01-13T21:02:57.506Z,77.50
2019-01-13T21:03:58.947Z,78.40
2019-01-13T21:05:00.336Z,78.00
2019-01-13T21:06:01.724Z,78.30
2019-01-13T21:07:03.382Z,79.70
2019-01-13T21:08:04.888Z,79.30
2019-01-13T21:09:08.386Z,79.30
2019-01-13T21:10:10.995Z,78.50
2019-01-13T21:11:14.952Z,78.40
2019-01-13T21:12:16.331Z,75.50
2019-01-13T21:13:18.186Z,78.00
2019-01-13T21:14:22.092Z,78.20
2019-01-13T21:15:29.160Z,76.90
2019-01-13T21:16:30.632Z,74.60
2019-01-13T21:17:32.027Z,75.50
2019-01-13T21:18:34.293Z,76.00
2019-01-13T21:19:35.664Z,76.90
2019-01-13T21:20:43.242Z,79.20
2019-01-13T21:21:44.635Z,78.40
2019-01-13T21:22:49.136Z,77.60
2019-01-13T21:23:52.199Z,77.20
2019-01-13T21:24:54.174Z,75.50
2019-01-13T21:25:55.560Z,76.20
2019-01-13T21:27:00.019Z,77.40
2019-01-13T21:28:01.515Z,77.60
2019-01-13T21:29:05.723Z,76.90
2019-01-13T21:30:09.035Z,76.60
2019-01-13T21:31:15.104Z,74.80
2019-01-13T21:32:16.515Z,74.10
2019-01-13T21:33:17.904Z,75.30
2019-01-13T21:34:19.635Z,75.40
2019-01-13T21:35:21.022Z,75.70
2019-01-13T21:36:22.473Z,76.00
2019-01-13T21:37:25.657Z,74.90
2019-01-13T21:38:27.071Z,76.20
2019-01-13T21:39:28.563Z,76.70
2019-01-13T21:40:29.945Z,77.00
2019-01-13T21:41:31.330Z,76.50
2019-01-13T21:42:32.714Z,77.20
2019-01-13T21:43:34.132Z,76.40
2019-01-13T21:44:35.634Z,77.30
2019-01-13T21:45:37.010Z,77.10
2019-01-13T21:46:38.406Z,76.40
2019-01-13T21:47:39.786Z,74.80
2019-01-13T21:48:41.181Z,75.60
2019-01-13T21:49:42.788Z,74.70
2019-01-13T21:50:44.187Z,73.50
2019-01-13T21:51:45.570Z,72.50
2019-01-13T21:52:46.975Z,72.80
2019-01-13T21:53:48.347Z,71.30
2019-01-13T21:54:49.835Z,71.40
2019-01-13T21:55:51.213Z,72.40
2019-01-13T21:56:52.611Z,73.50
2019-01-13T21:57:54.005Z,74.30
2019-01-13T21:58:55.670Z,74.70
2019-01-13T21:59:57.106Z,72.90
2019-01-13T22:00:59.193Z,72.60
2019-01-13T22:02:00.584Z,72.80
2019-01-13T22:03:01.969Z,72.30
2019-01-13T22:04:03.406Z,73.50
2019-01-13T22:05:06.310Z,72.40
2019-01-13T22:06:07.705Z,71.70
2019-01-13T22:07:10.445Z,71.80
2019-01-13T22:08:11.806Z,71.10
2019-01-13T22:09:13.210Z,71.00
2019-01-13T22:10:15.774Z,70.90
2019-01-13T22:11:17.176Z,70.00
2019-01-13T22:12:18.559Z,71.50
2019-01-13T22:13:20.566Z,71.40
2019-01-13T22:14:21.953Z,71.50
2019-01-13T22:15:23.399Z,70.60
2019-01-13T22:16:26.448Z,70.70
2019-01-13T22:17:29.206Z,70.60
2019-01-13T22:18:30.543Z,70.20
2019-01-13T22:19:31.925Z,69.70
2019-01-13T22:20:33.452Z,69.80
2019-01-13T22:21:34.836Z,70.20
2019-01-13T22:22:36.246Z,71.20
2019-01-13T22:23:37.639Z,70.30
2019-01-13T22:24:39.023Z,69.30
2019-01-13T22:25:40.750Z,69.10
2019-01-13T22:26:42.132Z,69.60
2019-01-13T22:27:43.541Z,68.80
2019-01-13T22:28:44.920Z,69.20
2019-01-13T22:29:46.310Z,69.50
2019-01-13T22:30:48.063Z,69.30
2019-01-13T22:31:50.968Z,69.20
2019-01-13T22:32:54.883Z,71.70
2019-01-13T22:33:56.262Z,70.40
2019-01-13T22:34:57.941Z,70.20
2019-01-13T22:35:59.362Z,70.30
2019-01-13T22:37:00.752Z,68.90
2019-01-13T22:38:02.604Z,68.50
2019-01-13T22:39:07.746Z,68.30
2019-01-13T22:40:13.134Z,68.90
2019-01-13T22:41:14.617Z,68.90
2019-01-13T22:42:16.000Z,70.20
2019-01-13T22:43:17.380Z,70.90
2019-01-13T22:44:18.758Z,70.30
2019-01-13T22:45:20.843Z,69.60
2019-01-13T22:46:22.273Z,70.00
2019-01-13T22:47:23.687Z,70.50
2019-01-13T22:48:25.070Z,69.70
2019-01-13T22:49:26.455Z,69.20
2019-01-13T22:50:28.162Z,68.40
2019-01-13T22:51:29.667Z,68.30
2019-01-13T22:52:31.359Z,69.40
2019-01-13T22:53:34.545Z,68.50
2019-01-13T22:54:35.905Z,68.00
2019-01-13T22:55:37.286Z,67.80
2019-01-13T22:56:38.994Z,68.10
2019-01-13T22:57:40.707Z,68.00
2019-01-13T22:58:42.098Z,68.20